Time;durP1;ratioP1;P1;durP2;ratioP2;P2;SDS_P1;SDS_P2;PMS_P1;PMS_P2;Temp;Humidity;BMP_temperature;BMP_pressure;BME280_temperature;BME280_humidity;BME280_pressure;Samples;Min_cycle;Max_cycle;Signal;HPM_P1;HPM_P2
2021/01/19 00:02:19;;;;;;;3.47;3.00;;;12.30;68.60;;;;;;5095898;28;20540;-61
2021/01/19 00:04:46;;;;;;;3.37;3.07;;;12.20;68.50;;;;;;5095242;28;20461;-60
2021/01/19 00:07:13;;;;;;;4.13;3.10;;;12.20;68.60;;;;;;5079080;28;20540;-59
2021/01/19 00:09:39;;;;;;;3.53;3.10;;;12.30;68.50;;;;;;5075379;28;20532;-60
2021/01/19 00:12:07;;;;;;;3.73;3.00;;;12.30;68.30;;;;;;5075758;28;20519;-59
2021/01/19 00:14:33;;;;;;;5.87;3.50;;;12.30;68.40;;;;;;5075300;28;20556;-60
2021/01/19 00:17:01;;;;;;;3.97;3.13;;;12.20;68.60;;;;;;5075377;28;20481;-60
2021/01/19 00:19:28;;;;;;;6.40;2.73;;;12.30;68.30;;;;;;5075150;28;20552;-59
2021/01/19 00:21:55;;;;;;;5.50;3.30;;;12.20;68.60;;;;;;5075062;28;20438;-59
2021/01/19 00:24:21;;;;;;;3.37;3.13;;;12.20;68.60;;;;;;5098948;28;20447;-59
2021/01/19 00:26:48;;;;;;;3.63;3.30;;;12.20;68.50;;;;;;5115567;28;20467;-59
2021/01/19 00:29:15;;;;;;;4.33;3.30;;;12.30;68.20;;;;;;5116081;27;20483;-58
2021/01/19 00:31:42;;;;;;;4.47;3.60;;;12.30;68.40;;;;;;5115875;28;20440;-56
2021/01/19 00:34:10;;;;;;;6.80;3.60;;;12.30;68.50;;;;;;5113665;28;20439;-58
2021/01/19 00:36:37;;;;;;;4.13;3.20;;;12.20;68.50;;;;;;5115705;28;20461;-57
2021/01/19 00:39:03;;;;;;;6.30;3.30;;;12.20;68.50;;;;;;5116030;28;20440;-58
2021/01/19 00:41:30;;;;;;;3.80;3.20;;;12.30;68.30;;;;;;5114919;28;20440;-56
2021/01/19 00:43:57;;;;;;;4.43;3.33;;;12.30;68.40;;;;;;5109938;28;20506;-58
2021/01/19 00:46:24;;;;;;;3.83;3.13;;;12.30;68.40;;;;;;5115240;28;20559;-58
2021/01/19 00:48:51;;;;;;;3.60;3.30;;;12.30;68.60;;;;;;5114954;28;20436;-57
2021/01/19 00:51:19;;;;;;;4.23;3.27;;;12.20;68.70;;;;;;5114976;28;20523;-58
2021/01/19 00:53:46;;;;;;;3.90;3.60;;;12.30;68.60;;;;;;5115529;28;20435;-58
2021/01/19 00:56:13;;;;;;;4.60;3.70;;;12.20;68.50;;;;;;5114863;28;20451;-60
2021/01/19 00:58:41;;;;;;;5.93;3.50;;;12.20;68.70;;;;;;5111497;28;20436;-57
2021/01/19 01:01:07;;;;;;;5.60;3.17;;;12.30;68.50;;;;;;5095221;28;20443;-59
2021/01/19 01:03:34;;;;;;;6.23;3.57;;;12.30;68.50;;;;;;5094760;28;20429;-59
2021/01/19 01:06:01;;;;;;;4.97;4.20;;;12.30;68.50;;;;;;5094162;28;20522;-59
2021/01/19 01:08:29;;;;;;;6.00;4.10;;;12.30;68.50;;;;;;5084615;28;20434;-59
2021/01/19 01:10:55;;;;;;;4.77;3.80;;;12.30;68.50;;;;;;5074182;28;20483;-59
2021/01/19 01:13:22;;;;;;;5.63;3.50;;;12.30;68.60;;;;;;5074380;28;20465;-59
2021/01/19 01:15:49;;;;;;;4.80;3.73;;;12.30;68.40;;;;;;5073995;28;20525;-59
2021/01/19 01:18:16;;;;;;;4.17;3.87;;;12.20;68.60;;;;;;5074881;28;20438;-58
2021/01/19 01:20:43;;;;;;;7.10;4.20;;;12.30;68.60;;;;;;5074263;28;20506;-59
2021/01/19 01:23:13;;;;;;;4.23;3.83;;;12.30;68.60;;;;;;5074135;28;20437;-59
2021/01/19 01:25:42;;;;;;;4.90;4.03;;;12.30;68.40;;;;;;5074327;28;20536;-60
2021/01/19 01:28:08;;;;;;;5.77;4.83;;;12.30;68.60;;;;;;5074046;28;20484;-58
2021/01/19 01:30:35;;;;;;;9.50;5.17;;;12.20;68.60;;;;;;5074043;28;20469;-58
2021/01/19 01:33:02;;;;;;;6.30;4.80;;;12.20;68.50;;;;;;5074295;28;20473;-56
2021/01/19 01:35:29;;;;;;;7.97;4.97;;;12.30;68.40;;;;;;5102419;28;20462;-57
2021/01/19 01:38:05;;;;;;;6.80;4.90;;;12.30;68.50;;;;;;5115011;28;20423;-57
2021/01/19 01:40:31;;;;;;;7.03;4.80;;;12.30;68.40;;;;;;5114501;28;20507;-56
2021/01/19 01:43:00;;;;;;;4.83;4.30;;;12.30;68.30;;;;;;5097428;28;20438;-58
2021/01/19 01:45:28;;;;;;;6.50;5.30;;;12.30;68.20;;;;;;5092948;28;20515;-58
2021/01/19 01:47:56;;;;;;;5.50;4.70;;;12.30;68.30;;;;;;5094329;28;20437;-58
2021/01/19 01:50:23;;;;;;;5.47;4.90;;;12.30;68.30;;;;;;5089155;28;20548;-59
2021/01/19 01:52:49;;;;;;;6.00;5.37;;;12.30;68.40;;;;;;5105245;28;20435;-60
2021/01/19 01:55:16;;;;;;;6.73;5.30;;;12.20;68.40;;;;;;5113550;28;20454;-58
2021/01/19 01:57:43;;;;;;;6.27;5.20;;;12.30;68.50;;;;;;5107932;28;20517;-60
2021/01/19 02:00:12;;;;;;;6.73;4.93;;;12.10;68.70;;;;;;5094124;28;20445;-60
2021/01/19 02:02:47;;;;;;;5.27;4.33;;;12.20;68.60;;;;;;5092308;28;20447;-58
2021/01/19 02:05:15;;;;;;;7.50;5.23;;;12.30;68.30;;;;;;5073174;28;20481;-59
2021/01/19 02:07:49;;;;;;;5.70;4.73;;;12.30;68.00;;;;;;5073585;28;20464;-58
2021/01/19 02:10:21;;;;;;;5.90;5.00;;;12.30;68.20;;;;;;5092357;28;20448;-59
2021/01/19 02:12:50;;;;;;;8.20;5.37;;;12.30;68.30;;;;;;5107549;28;20424;-59
2021/01/19 02:15:18;;;;;;;5.77;4.80;;;12.30;68.40;;;;;;5084158;28;20472;-58
2021/01/19 02:17:49;;;;;;;6.47;5.33;;;12.30;68.20;;;;;;5085210;28;20453;-58
2021/01/19 02:20:52;;;;;;;8.60;4.80;;;12.30;68.30;;;;;;5093702;28;20453;-58
2021/01/19 02:23:21;;;;;;;5.63;4.80;;;12.40;68.40;;;;;;5086709;28;20421;-58
2021/01/19 02:26:10;;;;;;;7.73;5.57;;;12.30;68.10;;;;;;5093048;28;20511;-60
2021/01/19 02:28:39;;;;;;;5.70;5.10;;;12.30;68.10;;;;;;5108511;28;20432;-60
2021/01/19 02:31:44;;;;;;;6.03;5.30;;;12.30;68.30;;;;;;5114160;28;20451;-60
2021/01/19 02:34:13;;;;;;;9.03;5.30;;;12.20;68.50;;;;;;5082194;28;20440;-60
2021/01/19 02:36:47;;;;;;;10.27;6.07;;;12.20;68.50;;;;;;5090884;28;20495;-60
2021/01/19 02:39:15;;;;;;;7.87;5.60;;;12.20;68.40;;;;;;5087420;28;20457;-60
2021/01/19 02:41:43;;;;;;;8.70;4.80;;;12.20;68.50;;;;;;5093386;28;20429;-60
2021/01/19 02:44:13;;;;;;;8.33;5.30;;;12.30;68.50;;;;;;5092911;28;20573;-60
2021/01/19 02:46:40;;;;;;;7.40;5.50;;;12.30;68.40;;;;;;5075968;28;20469;-60
2021/01/19 02:49:07;;;;;;;7.17;5.70;;;12.20;68.30;;;;;;5073084;28;20433;-60
2021/01/19 02:51:34;;;;;;;8.17;5.90;;;12.30;68.40;;;;;;5080008;28;20528;-60
2021/01/19 02:54:01;;;;;;;8.40;6.23;;;12.20;68.40;;;;;;5087529;28;20483;-60
2021/01/19 02:56:34;;;;;;;7.57;5.40;;;12.10;68.50;;;;;;5088466;28;20429;-61
2021/01/19 02:59:05;;;;;;;9.50;5.93;;;12.20;68.50;;;;;;5096659;28;20545;-60
2021/01/19 03:01:35;;;;;;;7.50;6.30;;;12.20;68.40;;;;;;5096782;28;20505;-60
2021/01/19 03:04:02;;;;;;;12.10;6.73;;;12.20;68.30;;;;;;5111512;28;20500;-60
2021/01/19 03:06:31;;;;;;;7.00;6.20;;;12.20;68.40;;;;;;5116810;28;20467;-61
2021/01/19 03:08:58;;;;;;;8.40;6.20;;;12.10;68.60;;;;;;5117266;28;20475;-60
2021/01/19 03:11:25;;;;;;;9.80;6.90;;;12.10;68.50;;;;;;5116907;27;20482;-60
2021/01/19 03:13:52;;;;;;;9.40;7.00;;;12.10;68.30;;;;;;5116891;28;20471;-61
2021/01/19 03:16:20;;;;;;;10.70;6.87;;;12.10;68.50;;;;;;5082513;28;20487;-61
2021/01/19 03:18:47;;;;;;;9.17;6.50;;;12.10;68.50;;;;;;5071434;28;20553;-60
2021/01/19 03:21:14;;;;;;;9.70;6.83;;;12.10;68.30;;;;;;5096662;28;20485;-60
2021/01/19 03:23:42;;;;;;;14.53;7.37;;;12.00;68.40;;;;;;5116836;28;20443;-60
2021/01/19 03:26:09;;;;;;;9.70;7.33;;;12.10;68.40;;;;;;5115740;28;20467;-61
2021/01/19 03:28:36;;;;;;;9.93;7.33;;;12.10;68.50;;;;;;5116477;28;20528;-60
2021/01/19 03:31:03;;;;;;;13.23;7.83;;;12.10;68.40;;;;;;5116132;28;20436;-60
2021/01/19 03:33:31;;;;;;;11.57;7.00;;;12.10;68.20;;;;;;5116922;28;20478;-60
2021/01/19 03:35:58;;;;;;;10.30;7.47;;;12.10;68.00;;;;;;5115779;28;20499;-60
2021/01/19 03:38:25;;;;;;;14.23;7.80;;;12.10;68.00;;;;;;5116284;28;20476;-60
2021/01/19 03:40:52;;;;;;;12.40;7.37;;;12.10;68.20;;;;;;5116563;28;20463;-60
2021/01/19 03:43:19;;;;;;;10.40;7.07;;;12.00;68.60;;;;;;5116507;28;20484;-60
2021/01/19 03:45:46;;;;;;;11.40;7.27;;;11.90;68.90;;;;;;5115855;28;20460;-60
2021/01/19 03:48:13;;;;;;;7.87;6.93;;;12.00;68.70;;;;;;5116000;28;20435;-60
2021/01/19 03:50:40;;;;;;;10.30;6.37;;;12.00;68.50;;;;;;5116722;28;20455;-60
2021/01/19 03:53:07;;;;;;;8.97;6.37;;;12.00;68.20;;;;;;5116165;28;20440;-61
2021/01/19 03:55:34;;;;;;;13.40;7.90;;;12.10;68.30;;;;;;5114845;28;20444;-60
2021/01/19 03:58:02;;;;;;;10.83;7.50;;;12.10;68.30;;;;;;5116107;28;20474;-60
2021/01/19 04:00:31;;;;;;;9.43;6.90;;;12.10;68.20;;;;;;5116274;28;20436;-60
2021/01/19 04:02:58;;;;;;;10.03;6.53;;;12.10;68.10;;;;;;5116024;28;20443;-61
2021/01/19 04:05:24;;;;;;;7.97;6.47;;;12.10;68.10;;;;;;5115266;28;20489;-61
2021/01/19 04:07:52;;;;;;;8.03;6.50;;;12.10;68.10;;;;;;5115142;28;20448;-61
2021/01/19 04:10:18;;;;;;;7.23;6.17;;;12.10;68.10;;;;;;5115753;28;20501;-61
2021/01/19 04:12:47;;;;;;;10.87;6.47;;;12.10;68.10;;;;;;5115691;28;20428;-60
2021/01/19 04:15:14;;;;;;;8.03;7.17;;;12.00;68.30;;;;;;5080613;27;20468;-60
2021/01/19 04:17:41;;;;;;;7.77;6.63;;;12.00;68.10;;;;;;5075084;28;20504;-60
2021/01/19 04:20:09;;;;;;;9.50;6.83;;;12.10;68.10;;;;;;5074941;28;20442;-60
2021/01/19 04:22:36;;;;;;;9.87;6.77;;;12.00;68.00;;;;;;5074671;28;20444;-60
2021/01/19 04:25:04;;;;;;;9.30;6.63;;;12.00;68.10;;;;;;5069489;28;20529;-61
2021/01/19 04:27:31;;;;;;;12.73;7.30;;;12.00;68.20;;;;;;5074804;28;20570;-60
2021/01/19 04:29:58;;;;;;;9.70;7.10;;;12.00;68.50;;;;;;5074982;28;20515;-60
2021/01/19 04:32:25;;;;;;;8.70;6.10;;;11.90;68.30;;;;;;5074761;28;20506;-61
2021/01/19 04:34:52;;;;;;;9.67;7.00;;;12.00;68.40;;;;;;5074165;28;20446;-60
2021/01/19 04:37:19;;;;;;;8.70;6.87;;;12.00;68.20;;;;;;5075062;28;20524;-60
2021/01/19 04:39:46;;;;;;;9.80;6.77;;;12.00;68.00;;;;;;5075741;28;20495;-61
2021/01/19 04:42:14;;;;;;;7.07;6.37;;;12.00;68.10;;;;;;5115200;28;20435;-61
2021/01/19 04:44:40;;;;;;;11.83;6.53;;;12.10;68.00;;;;;;5114537;28;20506;-60
2021/01/19 04:47:07;;;;;;;7.30;5.93;;;12.00;67.90;;;;;;5115274;28;20537;-60
2021/01/19 04:49:35;;;;;;;6.63;5.37;;;12.00;68.10;;;;;;5105713;28;20441;-60
2021/01/19 04:52:03;;;;;;;6.97;5.83;;;12.00;68.00;;;;;;5094909;28;20520;-61
2021/01/19 04:54:33;;;;;;;10.60;6.30;;;12.00;68.10;;;;;;5094251;28;20445;-60
2021/01/19 04:57:00;;;;;;;7.70;5.93;;;12.00;68.20;;;;;;5094904;28;20437;-60
2021/01/19 04:59:27;;;;;;;9.30;6.47;;;11.90;68.20;;;;;;5111790;28;20459;-61
2021/01/19 05:02:31;;;;;;;7.30;5.77;;;11.90;68.20;;;;;;5114761;28;20471;-61
2021/01/19 05:05:24;;;;;;;7.00;6.30;;;12.00;68.00;;;;;;5114165;28;20504;-61
2021/01/19 05:08:17;;;;;;;6.60;5.80;;;12.00;68.00;;;;;;5101150;28;20456;-60
2021/01/19 05:11:27;;;;;;;6.70;5.70;;;11.90;67.90;;;;;;5094376;28;20436;-60
2021/01/19 05:14:03;;;;;;;7.10;5.37;;;12.00;67.90;;;;;;5094444;28;20499;-61
2021/01/19 05:16:31;;;;;;;6.73;5.50;;;11.90;67.90;;;;;;5105204;28;20432;-60
2021/01/19 05:18:59;;;;;;;11.83;6.00;;;11.90;68.10;;;;;;5114056;28;20485;-61
2021/01/19 05:21:27;;;;;;;6.63;5.23;;;11.90;68.20;;;;;;5114933;28;20435;-60
2021/01/19 05:23:54;;;;;;;6.27;4.70;;;11.90;68.00;;;;;;5114273;28;20435;-60
2021/01/19 05:26:21;;;;;;;9.83;4.30;;;12.00;68.00;;;;;;5113567;28;20558;-60
2021/01/19 05:28:49;;;;;;;6.40;5.10;;;11.90;68.00;;;;;;5109436;28;20460;-61
2021/01/19 05:31:26;;;;;;;4.87;4.37;;;12.00;67.90;;;;;;5114226;28;20464;-60
2021/01/19 05:34:15;;;;;;;10.70;5.20;;;12.00;68.00;;;;;;5113904;28;20487;-60
2021/01/19 05:36:44;;;;;;;10.27;4.60;;;12.00;67.90;;;;;;5114780;28;20435;-61
2021/01/19 05:39:13;;;;;;;8.23;4.50;;;11.90;68.00;;;;;;5114084;28;20519;-61
2021/01/19 05:41:41;;;;;;;6.83;4.90;;;11.90;68.00;;;;;;5113669;28;20436;-60
2021/01/19 05:44:12;;;;;;;5.00;4.50;;;11.90;67.90;;;;;;5113466;28;20464;-60
2021/01/19 05:46:48;;;;;;;8.30;4.40;;;11.90;67.90;;;;;;5113857;28;20476;-60
2021/01/19 05:49:16;;;;;;;3.73;3.43;;;11.90;68.00;;;;;;5114060;28;20447;-61
2021/01/19 05:51:45;;;;;;;6.10;4.23;;;11.90;68.20;;;;;;5103520;28;20456;-61
2021/01/19 05:54:21;;;;;;;6.33;4.17;;;11.90;68.20;;;;;;5092817;28;20440;-61
2021/01/19 05:56:49;;;;;;;5.40;4.27;;;11.90;68.30;;;;;;5093940;28;20512;-61
2021/01/19 05:59:27;;;;;;;9.43;4.37;;;11.90;68.20;;;;;;5093610;28;20499;-61
2021/01/19 06:02:00;;;;;;;8.27;4.27;;;11.90;68.20;;;;;;5073484;28;20437;-60
2021/01/19 06:04:38;;;;;;;5.53;3.90;;;11.80;68.40;;;;;;5072835;28;20469;-61
2021/01/19 06:07:06;;;;;;;6.77;3.90;;;11.80;68.30;;;;;;5073497;28;20472;-60
2021/01/19 06:09:33;;;;;;;5.90;3.97;;;11.80;68.20;;;;;;5084377;28;20429;-60
2021/01/19 06:12:00;;;;;;;3.93;3.30;;;11.90;68.10;;;;;;5093699;28;20459;-61
2021/01/19 06:14:27;;;;;;;4.03;3.70;;;11.80;68.10;;;;;;5093274;28;20536;-61
2021/01/19 06:17:07;;;;;;;3.40;3.10;;;11.80;68.10;;;;;;5093272;28;20480;-61
2021/01/19 06:19:35;;;;;;;5.30;4.00;;;11.80;68.30;;;;;;5093594;28;20449;-61
2021/01/19 06:22:07;;;;;;;5.67;3.33;;;11.80;68.30;;;;;;5093436;28;20440;-61
2021/01/19 06:24:36;;;;;;;5.97;3.47;;;11.90;68.30;;;;;;5092875;28;20432;-61
2021/01/19 06:27:03;;;;;;;6.30;3.33;;;11.80;68.20;;;;;;5083861;28;20485;-61
2021/01/19 06:29:31;;;;;;;3.73;3.30;;;11.80;68.30;;;;;;5068020;28;20494;-61
2021/01/19 06:31:59;;;;;;;7.80;3.67;;;11.80;68.30;;;;;;5075556;28;20469;-60
2021/01/19 06:34:27;;;;;;;3.70;2.90;;;11.90;68.10;;;;;;5076880;28;20473;-61
2021/01/19 06:36:55;;;;;;;3.50;3.10;;;11.90;68.10;;;;;;5077295;28;20468;-61
2021/01/19 06:39:30;;;;;;;4.00;3.50;;;11.80;68.10;;;;;;5076758;28;20497;-52
2021/01/19 06:42:06;;;;;;;4.83;3.00;;;11.90;67.90;;;;;;5076778;28;20441;-54
2021/01/19 06:44:36;;;;;;;3.27;3.07;;;11.90;67.90;;;;;;5091378;28;20661;-54
2021/01/19 06:47:03;;;;;;;4.67;3.03;;;11.90;68.00;;;;;;5117350;28;20520;-54
2021/01/19 06:49:32;;;;;;;4.27;3.40;;;11.80;68.10;;;;;;5117336;28;20467;-55
2021/01/19 06:52:07;;;;;;;5.57;3.13;;;11.80;68.10;;;;;;5117613;28;20449;-50
2021/01/19 06:55:31;;;;;;;3.60;3.13;;;11.80;68.20;;;;;;5116300;28;20479;-55
2021/01/19 06:58:17;;;;;;;10.53;3.07;;;11.80;68.10;;;;;;5117366;28;20424;-52
2021/01/19 07:00:44;;;;;;;3.00;2.70;;;11.70;68.00;;;;;;5117126;28;20428;-51
2021/01/19 07:03:22;;;;;;;4.60;2.87;;;11.80;68.20;;;;;;5085789;28;20499;-53
2021/01/19 07:05:51;;;;;;;3.03;2.83;;;11.80;68.10;;;;;;5075804;28;20433;-52
2021/01/19 07:09:07;;;;;;;3.80;2.90;;;11.80;68.20;;;;;;5076414;28;20473;-54
2021/01/19 07:12:12;;;;;;;6.50;2.70;;;11.80;68.30;;;;;;5076794;28;20477;-54
2021/01/19 07:14:58;;;;;;;5.40;3.13;;;11.70;68.20;;;;;;5075955;28;20477;-51
2021/01/19 07:17:44;;;;;;;4.57;3.20;;;11.80;68.30;;;;;;5076230;28;20425;-55
2021/01/19 07:20:12;;;;;;;6.13;2.93;;;11.70;68.40;;;;;;5077023;28;20476;-56
2021/01/19 07:22:51;;;;;;;5.03;2.70;;;11.70;68.30;;;;;;5076194;28;20465;-55
2021/01/19 07:25:18;;;;;;;2.97;2.63;;;11.70;68.90;;;;;;5075974;28;20433;-55
2021/01/19 07:27:45;;;;;;;3.63;2.70;;;11.80;68.20;;;;;;5075708;28;20538;-50
2021/01/19 07:30:14;;;;;;;3.33;2.80;;;11.80;68.10;;;;;;5071216;28;20478;-51
2021/01/19 07:32:41;;;;;;;6.20;2.90;;;11.80;68.10;;;;;;5076249;28;20496;-47
2021/01/19 07:35:09;;;;;;;2.70;2.40;;;11.80;68.20;;;;;;5075300;28;20532;-50
2021/01/19 07:37:37;;;;;;;5.67;2.97;;;11.80;68.10;;;;;;5076400;28;20506;-48
2021/01/19 07:40:15;;;;;;;3.00;2.73;;;11.80;68.20;;;;;;5075950;28;20500;-50
2021/01/19 07:42:42;;;;;;;3.23;2.90;;;11.80;68.00;;;;;;5075716;28;20469;-48
2021/01/19 07:45:09;;;;;;;4.07;2.93;;;11.80;67.80;;;;;;5074980;28;20468;-51
2021/01/19 07:47:38;;;;;;;3.73;2.47;;;11.80;68.10;;;;;;5076214;28;20484;-55
2021/01/19 07:50:06;;;;;;;2.90;2.70;;;11.80;68.10;;;;;;5075729;28;20550;-54
2021/01/19 07:52:38;;;;;;;3.40;2.83;;;11.70;68.20;;;;;;5075275;28;20460;-55
2021/01/19 07:55:15;;;;;;;2.70;2.57;;;11.80;68.00;;;;;;5075065;28;20487;-54
2021/01/19 07:57:46;;;;;;;3.83;2.90;;;11.80;67.80;;;;;;5075715;28;20438;-51
2021/01/19 08:00:18;;;;;;;3.27;2.53;;;11.90;67.90;;;;;;5075439;28;20469;-54
2021/01/19 08:02:46;;;;;;;3.10;2.90;;;11.80;68.70;;;;;;5091495;28;20441;-56
2021/01/19 08:05:14;;;;;;;3.80;2.80;;;11.80;68.10;;;;;;5078940;28;20442;-53
2021/01/19 08:07:41;;;;;;;3.20;2.90;;;11.80;67.90;;;;;;5074922;28;20480;-50
2021/01/19 08:10:18;;;;;;;3.00;2.77;;;11.90;67.80;;;;;;5075357;28;20472;-52
2021/01/19 08:12:47;;;;;;;2.97;2.60;;;11.80;67.80;;;;;;5086110;28;20442;-52
2021/01/19 08:15:18;;;;;;;4.13;2.43;;;11.70;68.00;;;;;;5115191;28;20488;-50
2021/01/19 08:17:49;;;;;;;3.60;2.73;;;11.80;68.10;;;;;;5116613;28;20436;-55
2021/01/19 08:20:30;;;;;;;3.20;2.97;;;11.80;68.10;;;;;;5115799;28;20503;-53
2021/01/19 08:23:08;;;;;;;3.37;3.13;;;11.80;67.80;;;;;;5082835;28;20479;-52
2021/01/19 08:25:35;;;;;;;2.60;2.40;;;11.80;68.00;;;;;;5074791;28;20532;-52
2021/01/19 08:28:02;;;;;;;3.13;2.90;;;11.80;68.00;;;;;;5074749;28;20512;-50
2021/01/19 08:30:31;;;;;;;2.50;2.40;;;11.80;68.00;;;;;;5070041;28;20524;-53
2021/01/19 08:32:59;;;;;;;3.13;2.50;;;11.80;68.00;;;;;;5086646;28;20433;-51
2021/01/19 08:35:27;;;;;;;2.60;2.50;;;11.90;67.90;;;;;;5094349;28;20429;-51
2021/01/19 08:37:54;;;;;;;3.03;2.30;;;11.80;68.00;;;;;;5094764;28;20528;-55
2021/01/19 08:40:22;;;;;;;3.53;3.23;;;11.80;68.00;;;;;;5080939;28;20449;-53
2021/01/19 08:42:49;;;;;;;3.00;2.70;;;11.80;68.00;;;;;;5074456;28;20450;-54
2021/01/19 08:45:26;;;;;;;2.60;2.50;;;11.70;68.10;;;;;;5077598;28;20476;-52
2021/01/19 08:47:54;;;;;;;2.90;2.70;;;11.70;68.30;;;;;;5091052;28;20475;-53
2021/01/19 08:50:22;;;;;;;3.00;2.67;;;11.70;68.30;;;;;;5094461;28;20456;-55
2021/01/19 08:52:50;;;;;;;2.57;2.47;;;11.70;68.40;;;;;;5094518;28;20544;-55
2021/01/19 08:55:18;;;;;;;2.50;2.30;;;11.80;68.40;;;;;;5093628;28;20528;-55
2021/01/19 08:57:54;;;;;;;2.80;2.60;;;11.80;68.50;;;;;;5105552;28;20431;-54
2021/01/19 09:00:26;;;;;;;2.67;2.50;;;11.80;68.40;;;;;;5115099;28;20443;-54
2021/01/19 09:02:53;;;;;;;2.73;2.50;;;11.80;68.30;;;;;;5097504;28;20452;-55
2021/01/19 09:05:25;;;;;;;2.80;2.50;;;11.90;68.20;;;;;;5094100;28;20437;-53
2021/01/19 09:07:52;;;;;;;2.67;2.10;;;11.80;68.10;;;;;;5114035;28;20480;-53
2021/01/19 09:10:23;;;;;;;2.57;2.30;;;11.80;68.20;;;;;;5114647;28;20454;-54
2021/01/19 09:12:50;;;;;;;2.23;2.13;;;11.90;68.10;;;;;;5114690;28;20478;-52
2021/01/19 09:15:17;;;;;;;2.53;2.33;;;11.90;68.10;;;;;;5093666;28;20491;-53
2021/01/19 09:17:51;;;;;;;4.97;2.57;;;11.90;68.00;;;;;;5074547;28;20474;-53
2021/01/19 09:20:18;;;;;;;2.60;2.40;;;11.90;67.90;;;;;;5074090;28;20441;-53
2021/01/19 09:22:45;;;;;;;3.50;2.60;;;12.00;67.80;;;;;;5073762;28;20528;-55
2021/01/19 09:25:13;;;;;;;2.63;2.30;;;12.00;67.80;;;;;;5111684;28;20448;-49
2021/01/19 09:27:40;;;;;;;2.43;2.33;;;12.00;67.60;;;;;;5114019;28;20562;-50
2021/01/19 09:30:08;;;;;;;2.60;2.50;;;12.00;67.80;;;;;;5114091;28;20522;-51
2021/01/19 09:32:37;;;;;;;2.23;2.13;;;11.90;67.70;;;;;;5113658;28;20444;-52
2021/01/19 09:35:05;;;;;;;2.50;2.27;;;11.90;68.00;;;;;;5113654;28;20531;-50
2021/01/19 09:37:32;;;;;;;2.60;2.40;;;11.90;68.00;;;;;;5114582;28;20432;-50
2021/01/19 09:40:00;;;;;;;2.40;2.20;;;12.00;68.00;;;;;;5114684;28;20515;-54
2021/01/19 09:42:27;;;;;;;2.50;2.30;;;11.90;67.90;;;;;;5083414;28;20438;-54
2021/01/19 09:44:54;;;;;;;2.30;2.20;;;12.00;67.80;;;;;;5072208;28;20528;-52
2021/01/19 09:47:23;;;;;;;3.63;2.67;;;12.00;67.80;;;;;;5073552;28;20524;-53
2021/01/19 09:49:52;;;;;;;3.63;2.57;;;12.00;67.70;;;;;;5073839;28;20440;-54
2021/01/19 09:52:19;;;;;;;2.80;2.60;;;12.00;67.90;;;;;;5073573;28;20433;-53
2021/01/19 09:54:46;;;;;;;2.60;2.50;;;11.90;67.90;;;;;;5073073;28;20796;-49
2021/01/19 09:57:13;;;;;;;2.30;2.20;;;12.00;67.80;;;;;;5073613;28;20457;-53
2021/01/19 09:59:40;;;;;;;3.17;2.43;;;11.90;67.70;;;;;;5073652;28;20437;-47
2021/01/19 10:02:08;;;;;;;2.97;2.77;;;12.00;67.70;;;;;;5083737;28;20437;-47
2021/01/19 10:04:36;;;;;;;1.93;1.83;;;11.90;67.90;;;;;;5092983;28;20452;-51
2021/01/19 10:07:04;;;;;;;2.37;2.27;;;12.00;67.80;;;;;;5096006;28;20563;-53
2021/01/19 10:09:31;;;;;;;3.40;2.37;;;12.10;67.80;;;;;;5097672;28;20559;-53
2021/01/19 10:11:59;;;;;;;2.80;2.20;;;12.10;67.80;;;;;;5097511;28;20437;-54
2021/01/19 10:14:33;;;;;;;2.40;2.30;;;12.10;67.50;;;;;;5096843;28;20476;-54
2021/01/19 10:17:16;;;;;;;2.47;2.20;;;12.10;67.80;;;;;;5087714;28;20449;-48
2021/01/19 10:19:44;;;;;;;2.73;2.00;;;12.20;67.70;;;;;;5077375;28;20452;-50
2021/01/19 10:22:11;;;;;;;2.30;2.20;;;12.20;67.70;;;;;;5077083;28;20465;-50
2021/01/19 10:24:46;;;;;;;6.27;2.10;;;12.10;68.00;;;;;;5076699;28;20438;-52
2021/01/19 10:27:18;;;;;;;2.37;2.17;;;12.20;68.00;;;;;;5077645;28;20472;-51
2021/01/19 10:29:46;;;;;;;2.47;2.27;;;12.10;67.70;;;;;;5077765;28;20438;-48
2021/01/19 10:32:13;;;;;;;2.30;2.20;;;12.20;67.90;;;;;;5077430;28;20449;-52
2021/01/19 10:34:44;;;;;;;2.23;2.13;;;12.10;68.00;;;;;;5076807;28;20441;-51
2021/01/19 10:37:10;;;;;;;2.43;2.23;;;12.10;68.00;;;;;;5077126;28;20445;-51
2021/01/19 10:39:46;;;;;;;2.17;2.03;;;12.10;68.00;;;;;;5076600;28;20437;-55
2021/01/19 10:42:23;;;;;;;2.07;1.97;;;12.10;68.00;;;;;;5077545;28;20465;-53
2021/01/19 10:44:54;;;;;;;2.03;1.93;;;12.10;68.20;;;;;;5076999;28;20499;-50
2021/01/19 10:47:21;;;;;;;2.00;1.90;;;12.10;68.20;;;;;;5076919;28;20509;-54
2021/01/19 10:49:48;;;;;;;2.00;1.90;;;12.10;68.10;;;;;;5077077;28;20438;-52
2021/01/19 10:52:15;;;;;;;2.63;1.93;;;12.10;68.10;;;;;;5076635;28;20468;-50
2021/01/19 10:54:42;;;;;;;2.03;1.70;;;12.10;68.20;;;;;;5076363;28;20473;-53
2021/01/19 10:57:09;;;;;;;2.40;2.03;;;12.20;68.10;;;;;;5076607;28;20721;-49
2021/01/19 10:59:36;;;;;;;2.10;2.00;;;12.20;68.10;;;;;;5076746;28;20433;-51
2021/01/19 11:02:04;;;;;;;1.80;1.60;;;12.20;68.20;;;;;;5086794;28;20460;-53
2021/01/19 11:04:31;;;;;;;1.83;1.73;;;12.20;68.30;;;;;;5096169;28;20437;-53
2021/01/19 11:07:00;;;;;;;5.03;2.00;;;12.20;68.20;;;;;;5096510;28;20468;-54
2021/01/19 11:09:27;;;;;;;2.10;2.00;;;12.20;68.20;;;;;;5099311;28;20436;-51
2021/01/19 11:11:54;;;;;;;2.30;1.67;;;12.20;68.10;;;;;;5117346;28;20427;-50
2021/01/19 11:14:21;;;;;;;2.10;2.00;;;12.20;68.20;;;;;;5116765;28;20439;-53
2021/01/19 11:16:48;;;;;;;2.07;1.97;;;12.20;68.30;;;;;;5116300;28;20431;-50
2021/01/19 11:19:16;;;;;;;2.20;2.10;;;12.30;68.30;;;;;;5116082;28;20447;-55
2021/01/19 11:21:43;;;;;;;2.07;1.80;;;12.20;68.50;;;;;;5116872;28;20535;-50
2021/01/19 11:24:11;;;;;;;1.80;1.70;;;12.30;68.40;;;;;;5116401;28;20444;-59
2021/01/19 11:26:38;;;;;;;2.00;1.77;;;12.30;68.40;;;;;;5117145;28;20475;-59
2021/01/19 11:29:07;;;;;;;1.90;1.80;;;12.30;68.30;;;;;;5090352;28;20494;-59
2021/01/19 11:31:34;;;;;;;1.60;1.50;;;12.20;68.70;;;;;;5087266;28;20446;-58
2021/01/19 11:34:02;;;;;;;1.90;1.80;;;12.30;68.60;;;;;;5094078;28;20441;-59
2021/01/19 11:36:31;;;;;;;1.80;1.70;;;12.30;68.50;;;;;;5098597;28;20498;-49
2021/01/19 11:38:58;;;;;;;2.07;1.90;;;12.30;68.30;;;;;;5095475;28;20491;-60
2021/01/19 11:41:26;;;;;;;1.63;1.53;;;12.30;68.50;;;;;;5087324;28;20464;-61
2021/01/19 11:43:53;;;;;;;2.33;2.13;;;12.30;68.50;;;;;;5085910;28;20476;-60
2021/01/19 11:46:20;;;;;;;5.03;1.87;;;12.30;68.60;;;;;;5085203;28;20528;-61
2021/01/19 11:48:47;;;;;;;1.70;1.60;;;12.40;68.50;;;;;;5085254;28;20472;-61
2021/01/19 11:51:18;;;;;;;1.60;1.50;;;12.40;68.50;;;;;;5084751;28;20467;-55
2021/01/19 11:53:47;;;;;;;1.63;1.47;;;12.40;68.60;;;;;;5089044;28;20493;-55
2021/01/19 11:56:13;;;;;;;1.87;1.77;;;12.30;68.80;;;;;;5084845;28;20449;-55
2021/01/19 11:58:41;;;;;;;2.23;2.03;;;12.30;69.00;;;;;;5085318;28;20458;-55
2021/01/19 12:01:08;;;;;;;1.93;1.77;;;12.40;68.70;;;;;;5083764;28;20462;-55
2021/01/19 12:03:35;;;;;;;1.70;1.60;;;12.40;68.70;;;;;;5085795;28;20510;-55
2021/01/19 12:06:03;;;;;;;3.90;1.60;;;12.50;68.70;;;;;;5080446;28;20472;-51
2021/01/19 12:08:30;;;;;;;3.23;1.60;;;12.40;68.70;;;;;;5084842;28;20471;-52
2021/01/19 12:10:58;;;;;;;1.70;1.60;;;12.40;68.70;;;;;;5082890;28;20461;-55
2021/01/19 12:13:25;;;;;;;4.80;1.87;;;12.40;69.00;;;;;;5084053;28;20537;-55
2021/01/19 12:15:52;;;;;;;2.20;1.70;;;12.50;68.80;;;;;;5083995;28;20433;-52
2021/01/19 12:18:19;;;;;;;1.80;1.70;;;12.50;68.80;;;;;;5084049;28;20433;-51
2021/01/19 12:20:46;;;;;;;1.60;1.50;;;12.50;69.10;;;;;;5087272;28;20521;-55
2021/01/19 12:23:13;;;;;;;2.17;1.60;;;12.60;68.90;;;;;;5088464;28;20473;-54
2021/01/19 12:25:39;;;;;;;1.83;1.73;;;12.60;68.80;;;;;;5085278;28;20428;-52
2021/01/19 12:28:07;;;;;;;1.73;1.63;;;12.60;68.80;;;;;;5084323;28;20534;-51
2021/01/19 12:30:34;;;;;;;2.10;1.70;;;12.50;69.10;;;;;;5082272;28;20469;-55
2021/01/19 12:33:01;;;;;;;1.70;1.60;;;12.50;69.10;;;;;;5082725;28;20520;-51
2021/01/19 12:35:28;;;;;;;2.27;1.50;;;12.60;69.00;;;;;;5083369;28;20450;-53
2021/01/19 12:37:55;;;;;;;2.37;1.40;;;12.60;69.10;;;;;;5085601;28;20429;-53
2021/01/19 12:40:22;;;;;;;1.60;1.50;;;12.60;69.10;;;;;;5081503;28;20429;-53
2021/01/19 12:42:49;;;;;;;1.63;1.53;;;12.70;68.90;;;;;;5083875;28;20498;-53
2021/01/19 12:45:17;;;;;;;1.60;1.50;;;12.70;68.80;;;;;;5084348;28;20544;-54
2021/01/19 12:47:43;;;;;;;2.03;1.70;;;12.70;68.90;;;;;;5083247;28;20500;-50
2021/01/19 12:50:11;;;;;;;2.40;2.20;;;12.70;68.90;;;;;;5082552;28;20464;-55
2021/01/19 12:52:38;;;;;;;1.77;1.30;;;12.70;69.00;;;;;;5081985;28;20517;-52
2021/01/19 12:55:05;;;;;;;4.10;1.53;;;12.70;69.00;;;;;;5078645;28;20478;-52
2021/01/19 12:57:32;;;;;;;1.73;1.63;;;12.70;68.90;;;;;;5093951;28;20499;-47
2021/01/19 12:59:59;;;;;;;15.80;3.20;;;12.80;69.00;;;;;;5094281;28;20461;-52